sensor_id;sensor_type;location;lat;lon;timestamp;P1;durP1;ratioP1;P2;durP2;ratioP2
38529;SDS011;24301;54.332;48.386;2023-09-18T00:01:01;13.15;;;8.55;;
38529;SDS011;24301;54.332;48.386;2023-09-18T00:03:27;10.45;;;8.30;;
38529;SDS011;24301;54.332;48.386;2023-09-18T00:05:53;11.93;;;8.82;;
38529;SDS011;24301;54.332;48.386;2023-09-18T00:08:19;12.90;;;8.35;;
38529;SDS011;24301;54.332;48.386;2023-09-18T00:10:47;12.20;;;7.78;;
38529;SDS011;24301;54.332;48.386;2023-09-18T00:13:15;13.93;;;9.07;;
38529;SDS011;24301;54.332;48.386;2023-09-18T00:15:42;10.75;;;7.65;;
38529;SDS011;24301;54.332;48.386;2023-09-18T00:18:16;14.50;;;8.95;;
38529;SDS011;24301;54.332;48.386;2023-09-18T00:20:44;14.25;;;9.77;;
38529;SDS011;24301;54.332;48.386;2023-09-18T00:23:13;16.25;;;9.48;;
38529;SDS011;24301;54.332;48.386;2023-09-18T00:25:41;13.23;;;9.93;;
38529;SDS011;24301;54.332;48.386;2023-09-18T00:28:08;15.93;;;11.18;;
38529;SDS011;24301;54.332;48.386;2023-09-18T00:30:34;16.48;;;10.93;;
38529;SDS011;24301;54.332;48.386;2023-09-18T00:33:01;15.35;;;10.73;;
38529;SDS011;24301;54.332;48.386;2023-09-18T00:35:27;13.73;;;10.52;;
38529;SDS011;24301;54.332;48.386;2023-09-18T00:37:53;15.77;;;11.07;;
38529;SDS011;24301;54.332;48.386;2023-09-18T00:40:20;12.70;;;9.15;;
38529;SDS011;24301;54.332;48.386;2023-09-18T00:42:46;14.70;;;9.07;;
38529;SDS011;24301;54.332;48.386;2023-09-18T00:45:13;15.48;;;9.98;;
38529;SDS011;24301;54.332;48.386;2023-09-18T00:47:39;16.58;;;11.70;;
38529;SDS011;24301;54.332;48.386;2023-09-18T00:50:06;15.52;;;11.65;;
38529;SDS011;24301;54.332;48.386;2023-09-18T00:52:37;15.07;;;11.32;;
38529;SDS011;24301;54.332;48.386;2023-09-18T00:55:04;17.33;;;11.70;;
38529;SDS011;24301;54.332;48.386;2023-09-18T00:57:34;15.40;;;11.77;;
38529;SDS011;24301;54.332;48.386;2023-09-18T01:00:01;20.38;;;12.88;;
38529;SDS011;24301;54.332;48.386;2023-09-18T01:02:32;17.30;;;11.95;;
38529;SDS011;24301;54.332;48.386;2023-09-18T01:04:58;15.82;;;12.20;;
38529;SDS011;24301;54.332;48.386;2023-09-18T01:07:24;19.88;;;12.73;;
38529;SDS011;24301;54.332;48.386;2023-09-18T01:09:51;18.55;;;13.02;;
38529;SDS011;24301;54.332;48.386;2023-09-18T01:12:18;16.80;;;11.52;;
38529;SDS011;24301;54.332;48.386;2023-09-18T01:15:12;20.52;;;12.68;;
38529;SDS011;24301;54.332;48.386;2023-09-18T01:17:44;14.80;;;11.68;;
38529;SDS011;24301;54.332;48.386;2023-09-18T01:20:11;16.08;;;10.65;;
38529;SDS011;24301;54.332;48.386;2023-09-18T01:22:38;13.43;;;9.90;;
38529;SDS011;24301;54.332;48.386;2023-09-18T01:25:04;14.63;;;10.27;;
38529;SDS011;24301;54.332;48.386;2023-09-18T01:27:33;15.93;;;11.32;;
38529;SDS011;24301;54.332;48.386;2023-09-18T01:29:59;17.70;;;12.68;;
38529;SDS011;24301;54.332;48.386;2023-09-18T01:32:26;20.00;;;12.57;;
38529;SDS011;24301;54.332;48.386;2023-09-18T01:34:56;19.58;;;13.10;;
38529;SDS011;24301;54.332;48.386;2023-09-18T01:37:23;22.25;;;15.65;;
38529;SDS011;24301;54.332;48.386;2023-09-18T01:40:02;23.27;;;16.50;;
38529;SDS011;24301;54.332;48.386;2023-09-18T01:42:33;23.90;;;16.02;;
38529;SDS011;24301;54.332;48.386;2023-09-18T01:45:01;25.15;;;17.17;;
38529;SDS011;24301;54.332;48.386;2023-09-18T01:47:32;33.40;;;18.77;;
38529;SDS011;24301;54.332;48.386;2023-09-18T01:49:58;28.33;;;19.25;;
38529;SDS011;24301;54.332;48.386;2023-09-18T01:52:31;24.98;;;18.77;;
38529;SDS011;24301;54.332;48.386;2023-09-18T01:54:57;31.05;;;20.48;;
38529;SDS011;24301;54.332;48.386;2023-09-18T01:57:23;30.73;;;20.85;;
38529;SDS011;24301;54.332;48.386;2023-09-18T01:59:49;29.52;;;20.08;;
38529;SDS011;24301;54.332;48.386;2023-09-18T02:02:15;29.88;;;19.95;;
38529;SDS011;24301;54.332;48.386;2023-09-18T02:04:48;28.83;;;20.08;;
38529;SDS011;24301;54.332;48.386;2023-09-18T02:07:14;35.80;;;24.75;;
38529;SDS011;24301;54.332;48.386;2023-09-18T02:09:40;38.45;;;25.70;;
38529;SDS011;24301;54.332;48.386;2023-09-18T02:12:06;40.33;;;25.63;;
38529;SDS011;24301;54.332;48.386;2023-09-18T02:14:33;37.95;;;25.48;;
38529;SDS011;24301;54.332;48.386;2023-09-18T02:17:00;41.80;;;27.60;;
38529;SDS011;24301;54.332;48.386;2023-09-18T02:19:26;46.75;;;29.85;;
38529;SDS011;24301;54.332;48.386;2023-09-18T02:21:52;43.58;;;30.05;;
38529;SDS011;24301;54.332;48.386;2023-09-18T02:24:22;44.67;;;31.38;;
38529;SDS011;24301;54.332;48.386;2023-09-18T02:26:49;39.72;;;26.27;;
38529;SDS011;24301;54.332;48.386;2023-09-18T02:29:14;31.77;;;22.75;;
38529;SDS011;24301;54.332;48.386;2023-09-18T02:31:40;31.08;;;22.63;;
38529;SDS011;24301;54.332;48.386;2023-09-18T02:34:07;28.52;;;20.50;;
38529;SDS011;24301;54.332;48.386;2023-09-18T02:36:34;32.80;;;18.15;;
38529;SDS011;24301;54.332;48.386;2023-09-18T02:39:00;27.13;;;18.70;;
38529;SDS011;24301;54.332;48.386;2023-09-18T02:41:26;30.27;;;20.25;;
38529;SDS011;24301;54.332;48.386;2023-09-18T02:43:52;25.95;;;18.70;;
38529;SDS011;24301;54.332;48.386;2023-09-18T02:46:17;26.08;;;19.23;;
38529;SDS011;24301;54.332;48.386;2023-09-18T02:48:43;24.98;;;19.05;;
38529;SDS011;24301;54.332;48.386;2023-09-18T02:51:10;28.10;;;19.23;;
38529;SDS011;24301;54.332;48.386;2023-09-18T02:53:36;25.08;;;16.60;;
38529;SDS011;24301;54.332;48.386;2023-09-18T02:56:02;31.60;;;17.38;;
38529;SDS011;24301;54.332;48.386;2023-09-18T02:58:28;29.77;;;20.17;;
38529;SDS011;24301;54.332;48.386;2023-09-18T03:00:56;28.05;;;21.13;;
38529;SDS011;24301;54.332;48.386;2023-09-18T03:03:29;34.47;;;22.20;;
38529;SDS011;24301;54.332;48.386;2023-09-18T03:06:03;28.45;;;21.75;;
38529;SDS011;24301;54.332;48.386;2023-09-18T03:08:30;34.85;;;22.90;;
38529;SDS011;24301;54.332;48.386;2023-09-18T03:10:57;28.70;;;21.05;;
38529;SDS011;24301;54.332;48.386;2023-09-18T03:13:25;27.10;;;18.13;;
38529;SDS011;24301;54.332;48.386;2023-09-18T03:15:52;19.83;;;15.38;;
38529;SDS011;24301;54.332;48.386;2023-09-18T03:18:18;20.48;;;14.18;;
38529;SDS011;24301;54.332;48.386;2023-09-18T03:20:44;17.73;;;13.35;;
38529;SDS011;24301;54.332;48.386;2023-09-18T03:23:10;16.10;;;12.30;;
38529;SDS011;24301;54.332;48.386;2023-09-18T03:25:36;14.10;;;10.85;;
38529;SDS011;24301;54.332;48.386;2023-09-18T03:28:05;14.25;;;11.15;;
38529;SDS011;24301;54.332;48.386;2023-09-18T03:30:33;14.32;;;10.77;;
38529;SDS011;24301;54.332;48.386;2023-09-18T03:32:59;19.25;;;11.38;;
38529;SDS011;24301;54.332;48.386;2023-09-18T03:35:28;15.00;;;11.10;;
38529;SDS011;24301;54.332;48.386;2023-09-18T03:37:54;11.68;;;9.23;;
38529;SDS011;24301;54.332;48.386;2023-09-18T03:40:21;10.75;;;7.63;;
38529;SDS011;24301;54.332;48.386;2023-09-18T03:42:48;11.90;;;7.70;;
38529;SDS011;24301;54.332;48.386;2023-09-18T03:45:17;11.30;;;9.35;;
38529;SDS011;24301;54.332;48.386;2023-09-18T03:47:46;13.25;;;8.93;;
38529;SDS011;24301;54.332;48.386;2023-09-18T03:50:12;12.82;;;8.48;;
38529;SDS011;24301;54.332;48.386;2023-09-18T03:52:39;11.07;;;7.60;;
38529;SDS011;24301;54.332;48.386;2023-09-18T03:55:07;7.97;;;6.88;;
38529;SDS011;24301;54.332;48.386;2023-09-18T03:57:34;10.90;;;7.75;;
38529;SDS011;24301;54.332;48.386;2023-09-18T04:00:04;9.57;;;7.93;;
38529;SDS011;24301;54.332;48.386;2023-09-18T04:02:38;13.55;;;11.32;;
38529;SDS011;24301;54.332;48.386;2023-09-18T04:05:04;10.85;;;7.35;;
38529;SDS011;24301;54.332;48.386;2023-09-18T04:07:30;10.88;;;7.65;;
38529;SDS011;24301;54.332;48.386;2023-09-18T04:09:59;10.32;;;8.30;;
38529;SDS011;24301;54.332;48.386;2023-09-18T04:12:25;17.75;;;8.43;;
38529;SDS011;24301;54.332;48.386;2023-09-18T04:14:51;8.20;;;6.90;;
38529;SDS011;24301;54.332;48.386;2023-09-18T04:17:17;9.23;;;7.53;;
38529;SDS011;24301;54.332;48.386;2023-09-18T04:19:43;12.02;;;8.13;;
38529;SDS011;24301;54.332;48.386;2023-09-18T04:22:09;12.00;;;7.38;;
38529;SDS011;24301;54.332;48.386;2023-09-18T04:24:35;9.88;;;7.38;;
38529;SDS011;24301;54.332;48.386;2023-09-18T04:27:01;9.00;;;7.30;;
38529;SDS011;24301;54.332;48.386;2023-09-18T04:29:28;12.30;;;7.30;;
38529;SDS011;24301;54.332;48.386;2023-09-18T04:31:54;11.40;;;7.68;;
38529;SDS011;24301;54.332;48.386;2023-09-18T04:34:20;10.00;;;8.20;;
38529;SDS011;24301;54.332;48.386;2023-09-18T04:36:48;11.80;;;7.63;;
38529;SDS011;24301;54.332;48.386;2023-09-18T04:39:14;14.55;;;8.18;;
38529;SDS011;24301;54.332;48.386;2023-09-18T04:41:40;13.07;;;8.43;;
38529;SDS011;24301;54.332;48.386;2023-09-18T04:44:06;12.00;;;8.32;;
38529;SDS011;24301;54.332;48.386;2023-09-18T04:46:33;12.55;;;8.23;;
38529;SDS011;24301;54.332;48.386;2023-09-18T04:49:02;11.43;;;8.02;;
38529;SDS011;24301;54.332;48.386;2023-09-18T04:51:32;13.38;;;8.90;;
38529;SDS011;24301;54.332;48.386;2023-09-18T04:53:59;14.15;;;8.43;;
38529;SDS011;24301;54.332;48.386;2023-09-18T04:56:26;14.15;;;9.02;;
38529;SDS011;24301;54.332;48.386;2023-09-18T04:58:53;12.43;;;8.45;;
38529;SDS011;24301;54.332;48.386;2023-09-18T05:01:19;10.43;;;7.47;;
38529;SDS011;24301;54.332;48.386;2023-09-18T05:03:47;9.93;;;6.25;;
38529;SDS011;24301;54.332;48.386;2023-09-18T05:06:14;9.75;;;7.72;;
38529;SDS011;24301;54.332;48.386;2023-09-18T05:08:43;9.95;;;6.75;;
38529;SDS011;24301;54.332;48.386;2023-09-18T05:11:10;12.15;;;7.20;;
38529;SDS011;24301;54.332;48.386;2023-09-18T05:13:37;13.30;;;6.95;;
38529;SDS011;24301;54.332;48.386;2023-09-18T05:16:03;14.20;;;6.70;;
38529;SDS011;24301;54.332;48.386;2023-09-18T05:18:29;8.93;;;6.57;;
38529;SDS011;24301;54.332;48.386;2023-09-18T05:20:56;9.38;;;6.78;;
38529;SDS011;24301;54.332;48.386;2023-09-18T05:23:23;10.20;;;6.10;;
38529;SDS011;24301;54.332;48.386;2023-09-18T05:25:49;11.98;;;7.15;;
38529;SDS011;24301;54.332;48.386;2023-09-18T05:28:15;10.63;;;5.75;;
38529;SDS011;24301;54.332;48.386;2023-09-18T05:30:41;8.88;;;6.25;;
38529;SDS011;24301;54.332;48.386;2023-09-18T05:33:07;7.40;;;5.95;;
38529;SDS011;24301;54.332;48.386;2023-09-18T05:35:36;9.40;;;5.97;;
38529;SDS011;24301;54.332;48.386;2023-09-18T05:38:05;8.73;;;5.28;;
38529;SDS011;24301;54.332;48.386;2023-09-18T05:40:32;15.15;;;6.47;;
38529;SDS011;24301;54.332;48.386;2023-09-18T05:42:59;8.00;;;6.25;;
38529;SDS011;24301;54.332;48.386;2023-09-18T05:45:25;8.93;;;6.75;;
38529;SDS011;24301;54.332;48.386;2023-09-18T05:47:53;10.77;;;6.28;;
38529;SDS011;24301;54.332;48.386;2023-09-18T05:50:27;9.68;;;5.63;;
38529;SDS011;24301;54.332;48.386;2023-09-18T05:52:56;7.45;;;6.20;;
38529;SDS011;24301;54.332;48.386;2023-09-18T05:55:29;8.20;;;5.60;;
38529;SDS011;24301;54.332;48.386;2023-09-18T05:57:56;11.63;;;5.95;;
38529;SDS011;24301;54.332;48.386;2023-09-18T06:00:25;14.70;;;6.55;;
38529;SDS011;24301;54.332;48.386;2023-09-18T06:02:51;9.55;;;7.18;;
38529;SDS011;24301;54.332;48.386;2023-09-18T06:05:17;8.90;;;6.45;;
38529;SDS011;24301;54.332;48.386;2023-09-18T06:07:48;9.57;;;6.70;;
38529;SDS011;24301;54.332;48.386;2023-09-18T06:10:15;8.98;;;6.40;;
38529;SDS011;24301;54.332;48.386;2023-09-18T06:12:44;12.52;;;6.93;;
38529;SDS011;24301;54.332;48.386;2023-09-18T06:15:11;9.07;;;6.28;;
38529;SDS011;24301;54.332;48.386;2023-09-18T06:17:39;8.07;;;5.85;;
38529;SDS011;24301;54.332;48.386;2023-09-18T06:20:07;9.18;;;6.85;;
38529;SDS011;24301;54.332;48.386;2023-09-18T06:22:39;11.73;;;6.30;;
38529;SDS011;24301;54.332;48.386;2023-09-18T06:25:07;11.85;;;5.95;;
38529;SDS011;24301;54.332;48.386;2023-09-18T06:27:37;10.35;;;5.82;;
38529;SDS011;24301;54.332;48.386;2023-09-18T06:30:04;10.95;;;5.25;;
38529;SDS011;24301;54.332;48.386;2023-09-18T06:32:31;7.75;;;5.35;;
38529;SDS011;24301;54.332;48.386;2023-09-18T06:34:57;7.78;;;5.43;;
38529;SDS011;24301;54.332;48.386;2023-09-18T06:37:24;12.38;;;6.03;;
38529;SDS011;24301;54.332;48.386;2023-09-18T06:39:50;11.90;;;6.32;;
38529;SDS011;24301;54.332;48.386;2023-09-18T06:42:17;11.15;;;6.72;;
38529;SDS011;24301;54.332;48.386;2023-09-18T06:44:46;10.15;;;6.00;;
38529;SDS011;24301;54.332;48.386;2023-09-18T06:47:12;8.90;;;6.35;;
38529;SDS011;24301;54.332;48.386;2023-09-18T06:49:40;12.70;;;6.28;;
38529;SDS011;24301;54.332;48.386;2023-09-18T06:52:08;11.70;;;5.15;;
38529;SDS011;24301;54.332;48.386;2023-09-18T06:54:36;6.25;;;3.70;;
38529;SDS011;24301;54.332;48.386;2023-09-18T06:57:03;4.82;;;2.90;;
38529;SDS011;24301;54.332;48.386;2023-09-18T06:59:37;3.95;;;2.53;;
38529;SDS011;24301;54.332;48.386;2023-09-18T07:02:03;5.22;;;3.13;;
38529;SDS011;24301;54.332;48.386;2023-09-18T07:04:29;4.10;;;2.78;;
38529;SDS011;24301;54.332;48.386;2023-09-18T07:06:55;6.32;;;3.05;;
38529;SDS011;24301;54.332;48.386;2023-09-18T07:09:22;4.80;;;3.35;;
38529;SDS011;24301;54.332;48.386;2023-09-18T07:11:52;3.83;;;2.53;;
38529;SDS011;24301;54.332;48.386;2023-09-18T07:14:17;5.00;;;2.83;;
38529;SDS011;24301;54.332;48.386;2023-09-18T07:16:44;5.03;;;3.00;;
38529;SDS011;24301;54.332;48.386;2023-09-18T07:19:10;4.88;;;2.88;;
38529;SDS011;24301;54.332;48.386;2023-09-18T07:21:37;5.55;;;3.55;;
38529;SDS011;24301;54.332;48.386;2023-09-18T07:24:05;3.72;;;2.85;;
38529;SDS011;24301;54.332;48.386;2023-09-18T07:26:31;6.07;;;3.03;;
38529;SDS011;24301;54.332;48.386;2023-09-18T07:28:57;8.50;;;3.45;;
38529;SDS011;24301;54.332;48.386;2023-09-18T07:31:23;6.00;;;3.53;;
38529;SDS011;24301;54.332;48.386;2023-09-18T07:33:50;8.30;;;3.28;;
38529;SDS011;24301;54.332;48.386;2023-09-18T07:36:18;5.22;;;3.28;;
38529;SDS011;24301;54.332;48.386;2023-09-18T07:38:45;9.38;;;3.45;;
38529;SDS011;24301;54.332;48.386;2023-09-18T07:41:11;4.95;;;2.90;;
38529;SDS011;24301;54.332;48.386;2023-09-18T07:43:37;6.68;;;3.65;;
38529;SDS011;24301;54.332;48.386;2023-09-18T07:46:04;4.20;;;2.97;;
38529;SDS011;24301;54.332;48.386;2023-09-18T07:48:30;6.50;;;3.17;;
38529;SDS011;24301;54.332;48.386;2023-09-18T07:50:56;5.30;;;3.10;;
38529;SDS011;24301;54.332;48.386;2023-09-18T07:53:23;3.63;;;2.70;;
38529;SDS011;24301;54.332;48.386;2023-09-18T07:55:55;6.68;;;3.53;;
38529;SDS011;24301;54.332;48.386;2023-09-18T08:00:52;4.55;;;3.58;;
38529;SDS011;24301;54.332;48.386;2023-09-18T08:03:23;5.95;;;3.58;;
38529;SDS011;24301;54.332;48.386;2023-09-18T08:05:54;4.97;;;3.30;;
38529;SDS011;24301;54.332;48.386;2023-09-18T08:08:20;5.78;;;3.55;;
38529;SDS011;24301;54.332;48.386;2023-09-18T08:10:50;7.75;;;3.53;;
38529;SDS011;24301;54.332;48.386;2023-09-18T08:13:17;5.60;;;3.55;;
38529;SDS011;24301;54.332;48.386;2023-09-18T08:15:43;6.22;;;3.85;;
38529;SDS011;24301;54.332;48.386;2023-09-18T08:18:10;5.72;;;3.38;;
38529;SDS011;24301;54.332;48.386;2023-09-18T08:20:40;4.40;;;3.33;;
38529;SDS011;24301;54.332;48.386;2023-09-18T08:23:09;7.50;;;3.72;;
38529;SDS011;24301;54.332;48.386;2023-09-18T08:25:36;4.50;;;3.30;;
38529;SDS011;24301;54.332;48.386;2023-09-18T08:28:03;7.35;;;3.50;;
38529;SDS011;24301;54.332;48.386;2023-09-18T08:30:32;5.50;;;3.55;;
38529;SDS011;24301;54.332;48.386;2023-09-18T08:32:58;5.18;;;3.45;;
38529;SDS011;24301;54.332;48.386;2023-09-18T08:35:23;7.68;;;3.63;;
38529;SDS011;24301;54.332;48.386;2023-09-18T08:37:54;4.68;;;2.97;;
38529;SDS011;24301;54.332;48.386;2023-09-18T08:40:20;4.50;;;3.00;;
38529;SDS011;24301;54.332;48.386;2023-09-18T08:42:48;6.22;;;3.22;;
38529;SDS011;24301;54.332;48.386;2023-09-18T08:48:10;4.10;;;2.88;;
38529;SDS011;24301;54.332;48.386;2023-09-18T08:50:37;7.05;;;3.55;;
38529;SDS011;24301;54.332;48.386;2023-09-18T08:53:04;4.68;;;3.25;;
38529;SDS011;24301;54.332;48.386;2023-09-18T08:55:31;4.90;;;3.50;;
38529;SDS011;24301;54.332;48.386;2023-09-18T08:57:58;4.95;;;3.10;;
38529;SDS011;24301;54.332;48.386;2023-09-18T09:00:26;6.07;;;3.58;;
38529;SDS011;24301;54.332;48.386;2023-09-18T09:02:52;5.63;;;3.92;;
38529;SDS011;24301;54.332;48.386;2023-09-18T09:05:22;4.97;;;3.75;;
38529;SDS011;24301;54.332;48.386;2023-09-18T09:07:48;7.28;;;3.38;;
38529;SDS011;24301;54.332;48.386;2023-09-18T09:10:16;4.75;;;3.17;;
38529;SDS011;24301;54.332;48.386;2023-09-18T09:12:47;3.63;;;2.72;;
38529;SDS011;24301;54.332;48.386;2023-09-18T09:15:23;5.47;;;3.45;;
38529;SDS011;24301;54.332;48.386;2023-09-18T09:18:11;4.15;;;3.22;;
38529;SDS011;24301;54.332;48.386;2023-09-18T09:20:38;4.63;;;3.60;;
38529;SDS011;24301;54.332;48.386;2023-09-18T09:23:05;5.63;;;3.08;;
38529;SDS011;24301;54.332;48.386;2023-09-18T09:25:34;4.07;;;3.05;;
38529;SDS011;24301;54.332;48.386;2023-09-18T09:28:03;3.88;;;3.10;;
38529;SDS011;24301;54.332;48.386;2023-09-18T09:30:31;4.20;;;3.03;;
38529;SDS011;24301;54.332;48.386;2023-09-18T09:32:58;3.42;;;2.58;;
38529;SDS011;24301;54.332;48.386;2023-09-18T09:35:31;5.35;;;3.45;;
38529;SDS011;24301;54.332;48.386;2023-09-18T09:38:00;5.57;;;3.60;;
38529;SDS011;24301;54.332;48.386;2023-09-18T09:40:32;5.50;;;3.65;;
38529;SDS011;24301;54.332;48.386;2023-09-18T09:42:58;3.20;;;2.80;;
38529;SDS011;24301;54.332;48.386;2023-09-18T09:45:30;4.70;;;3.65;;
38529;SDS011;24301;54.332;48.386;2023-09-18T09:48:04;7.95;;;3.78;;
38529;SDS011;24301;54.332;48.386;2023-09-18T09:50:32;8.18;;;4.07;;
38529;SDS011;24301;54.332;48.386;2023-09-18T09:52:58;5.30;;;3.65;;
38529;SDS011;24301;54.332;48.386;2023-09-18T09:55:29;7.10;;;3.42;;
38529;SDS011;24301;54.332;48.386;2023-09-18T09:58:00;5.15;;;3.40;;
38529;SDS011;24301;54.332;48.386;2023-09-18T10:03:13;6.55;;;3.83;;
38529;SDS011;24301;54.332;48.386;2023-09-18T10:05:41;4.90;;;3.33;;
38529;SDS011;24301;54.332;48.386;2023-09-18T10:08:11;5.95;;;3.45;;
38529;SDS011;24301;54.332;48.386;2023-09-18T10:10:45;4.60;;;3.30;;
38529;SDS011;24301;54.332;48.386;2023-09-18T10:15:58;4.72;;;3.40;;
38529;SDS011;24301;54.332;48.386;2023-09-18T10:18:28;4.93;;;3.40;;
38529;SDS011;24301;54.332;48.386;2023-09-18T10:24:23;6.22;;;3.30;;
38529;SDS011;24301;54.332;48.386;2023-09-18T10:27:01;5.82;;;3.08;;
38529;SDS011;24301;54.332;48.386;2023-09-18T10:29:28;3.67;;;3.00;;
38529;SDS011;24301;54.332;48.386;2023-09-18T10:31:58;5.45;;;3.45;;
38529;SDS011;24301;54.332;48.386;2023-09-18T10:34:24;6.97;;;2.90;;
38529;SDS011;24301;54.332;48.386;2023-09-18T10:36:51;5.03;;;3.28;;
38529;SDS011;24301;54.332;48.386;2023-09-18T10:39:20;5.95;;;3.78;;
38529;SDS011;24301;54.332;48.386;2023-09-18T10:41:51;4.25;;;3.22;;
38529;SDS011;24301;54.332;48.386;2023-09-18T10:44:22;5.20;;;3.28;;
38529;SDS011;24301;54.332;48.386;2023-09-18T10:46:49;4.80;;;3.40;;
38529;SDS011;24301;54.332;48.386;2023-09-18T10:49:21;4.93;;;3.70;;
38529;SDS011;24301;54.332;48.386;2023-09-18T10:51:47;5.10;;;3.33;;
38529;SDS011;24301;54.332;48.386;2023-09-18T10:54:15;5.20;;;3.53;;
38529;SDS011;24301;54.332;48.386;2023-09-18T10:56:42;5.35;;;3.97;;
38529;SDS011;24301;54.332;48.386;2023-09-18T10:59:08;3.40;;;2.92;;
38529;SDS011;24301;54.332;48.386;2023-09-18T11:01:35;7.32;;;3.83;;
38529;SDS011;24301;54.332;48.386;2023-09-18T11:04:05;5.57;;;4.05;;
38529;SDS011;24301;54.332;48.386;2023-09-18T11:09:29;5.47;;;3.42;;
38529;SDS011;24301;54.332;48.386;2023-09-18T11:14:42;7.32;;;4.22;;
38529;SDS011;24301;54.332;48.386;2023-09-18T11:20:05;7.72;;;3.63;;
38529;SDS011;24301;54.332;48.386;2023-09-18T11:28:14;6.47;;;3.45;;
38529;SDS011;24301;54.332;48.386;2023-09-18T11:30:52;4.35;;;3.53;;
38529;SDS011;24301;54.332;48.386;2023-09-18T11:33:34;8.70;;;3.67;;
38529;SDS011;24301;54.332;48.386;2023-09-18T11:36:05;7.40;;;3.78;;
38529;SDS011;24301;54.332;48.386;2023-09-18T11:38:34;7.28;;;3.30;;
38529;SDS011;24301;54.332;48.386;2023-09-18T11:41:37;4.95;;;3.35;;
38529;SDS011;24301;54.332;48.386;2023-09-18T11:46:45;9.32;;;3.63;;
38529;SDS011;24301;54.332;48.386;2023-09-18T11:49:14;6.65;;;3.80;;
38529;SDS011;24301;54.332;48.386;2023-09-18T11:51:45;5.03;;;3.70;;
38529;SDS011;24301;54.332;48.386;2023-09-18T11:54:11;4.18;;;3.00;;
38529;SDS011;24301;54.332;48.386;2023-09-18T11:56:39;8.20;;;3.45;;
38529;SDS011;24301;54.332;48.386;2023-09-18T11:59:05;5.82;;;3.95;;
38529;SDS011;24301;54.332;48.386;2023-09-18T12:01:32;4.78;;;3.10;;
38529;SDS011;24301;54.332;48.386;2023-09-18T12:04:02;6.82;;;3.50;;
38529;SDS011;24301;54.332;48.386;2023-09-18T12:06:35;5.75;;;3.72;;
38529;SDS011;24301;54.332;48.386;2023-09-18T12:09:06;7.90;;;4.75;;
38529;SDS011;24301;54.332;48.386;2023-09-18T12:11:32;8.65;;;4.72;;
38529;SDS011;24301;54.332;48.386;2023-09-18T12:14:09;6.45;;;4.20;;
38529;SDS011;24301;54.332;48.386;2023-09-18T12:16:39;8.07;;;4.18;;
38529;SDS011;24301;54.332;48.386;2023-09-18T12:19:05;7.50;;;3.97;;
38529;SDS011;24301;54.332;48.386;2023-09-18T12:21:32;5.97;;;3.70;;
38529;SDS011;24301;54.332;48.386;2023-09-18T12:26:31;6.88;;;3.88;;
38529;SDS011;24301;54.332;48.386;2023-09-18T12:28:58;4.88;;;3.25;;
38529;SDS011;24301;54.332;48.386;2023-09-18T12:31:25;4.38;;;3.28;;
38529;SDS011;24301;54.332;48.386;2023-09-18T12:33:51;7.20;;;3.63;;
38529;SDS011;24301;54.332;48.386;2023-09-18T12:36:20;5.40;;;3.67;;
38529;SDS011;24301;54.332;48.386;2023-09-18T12:38:56;7.45;;;3.67;;
38529;SDS011;24301;54.332;48.386;2023-09-18T12:41:24;8.38;;;4.95;;
38529;SDS011;24301;54.332;48.386;2023-09-18T12:43:51;5.35;;;4.30;;
38529;SDS011;24301;54.332;48.386;2023-09-18T12:46:17;10.50;;;5.40;;
38529;SDS011;24301;54.332;48.386;2023-09-18T12:48:45;9.35;;;5.10;;
38529;SDS011;24301;54.332;48.386;2023-09-18T12:51:12;8.25;;;4.65;;
38529;SDS011;24301;54.332;48.386;2023-09-18T12:53:40;10.20;;;5.80;;
38529;SDS011;24301;54.332;48.386;2023-09-18T12:56:13;9.10;;;6.90;;
38529;SDS011;24301;54.332;48.386;2023-09-18T12:58:40;11.45;;;7.57;;
38529;SDS011;24301;54.332;48.386;2023-09-18T13:01:08;10.18;;;8.15;;
38529;SDS011;24301;54.332;48.386;2023-09-18T13:03:44;14.80;;;8.48;;
38529;SDS011;24301;54.332;48.386;2023-09-18T13:06:18;11.35;;;7.78;;
38529;SDS011;24301;54.332;48.386;2023-09-18T13:08:44;9.13;;;7.43;;
38529;SDS011;24301;54.332;48.386;2023-09-18T13:11:14;12.80;;;7.78;;
38529;SDS011;24301;54.332;48.386;2023-09-18T13:13:42;9.73;;;7.18;;
38529;SDS011;24301;54.332;48.386;2023-09-18T13:16:11;7.40;;;6.20;;
38529;SDS011;24301;54.332;48.386;2023-09-18T13:18:38;8.88;;;6.93;;
38529;SDS011;24301;54.332;48.386;2023-09-18T13:21:10;9.75;;;6.53;;
38529;SDS011;24301;54.332;48.386;2023-09-18T13:23:39;8.20;;;6.82;;
38529;SDS011;24301;54.332;48.386;2023-09-18T13:26:06;10.52;;;6.80;;
38529;SDS011;24301;54.332;48.386;2023-09-18T13:28:37;9.05;;;6.63;;
38529;SDS011;24301;54.332;48.386;2023-09-18T13:31:05;8.63;;;5.88;;
38529;SDS011;24301;54.332;48.386;2023-09-18T13:33:33;12.73;;;6.32;;
38529;SDS011;24301;54.332;48.386;2023-09-18T13:36:04;10.00;;;6.60;;
38529;SDS011;24301;54.332;48.386;2023-09-18T13:38:33;10.18;;;7.18;;
38529;SDS011;24301;54.332;48.386;2023-09-18T13:41:04;10.85;;;7.55;;
38529;SDS011;24301;54.332;48.386;2023-09-18T13:43:30;11.45;;;7.53;;
38529;SDS011;24301;54.332;48.386;2023-09-18T13:46:00;10.52;;;8.05;;
38529;SDS011;24301;54.332;48.386;2023-09-18T13:48:30;16.20;;;8.25;;
38529;SDS011;24301;54.332;48.386;2023-09-18T13:50:55;8.40;;;5.72;;
38529;SDS011;24301;54.332;48.386;2023-09-18T13:53:21;9.27;;;5.97;;
38529;SDS011;24301;54.332;48.386;2023-09-18T13:55:48;7.50;;;5.78;;
38529;SDS011;24301;54.332;48.386;2023-09-18T13:58:13;8.15;;;5.30;;
38529;SDS011;24301;54.332;48.386;2023-09-18T14:00:39;9.15;;;5.53;;
38529;SDS011;24301;54.332;48.386;2023-09-18T14:03:07;8.27;;;5.20;;
38529;SDS011;24301;54.332;48.386;2023-09-18T14:05:34;6.68;;;4.85;;
38529;SDS011;24301;54.332;48.386;2023-09-18T14:08:00;9.18;;;4.85;;
38529;SDS011;24301;54.332;48.386;2023-09-18T14:10:26;6.80;;;4.72;;
38529;SDS011;24301;54.332;48.386;2023-09-18T14:12:53;8.15;;;5.38;;
38529;SDS011;24301;54.332;48.386;2023-09-18T14:15:18;7.30;;;4.35;;
38529;SDS011;24301;54.332;48.386;2023-09-18T14:17:44;6.47;;;4.50;;
38529;SDS011;24301;54.332;48.386;2023-09-18T14:20:11;6.55;;;4.53;;
38529;SDS011;24301;54.332;48.386;2023-09-18T14:22:37;7.03;;;4.50;;
38529;SDS011;24301;54.332;48.386;2023-09-18T14:25:03;7.90;;;4.57;;
38529;SDS011;24301;54.332;48.386;2023-09-18T14:27:32;7.88;;;4.75;;
38529;SDS011;24301;54.332;48.386;2023-09-18T14:29:59;6.32;;;4.60;;
38529;SDS011;24301;54.332;48.386;2023-09-18T14:32:34;4.28;;;3.22;;
38529;SDS011;24301;54.332;48.386;2023-09-18T14:35:04;6.07;;;4.00;;
38529;SDS011;24301;54.332;48.386;2023-09-18T14:37:34;6.90;;;4.20;;
38529;SDS011;24301;54.332;48.386;2023-09-18T14:40:00;6.28;;;4.28;;
38529;SDS011;24301;54.332;48.386;2023-09-18T14:42:29;7.45;;;3.95;;
38529;SDS011;24301;54.332;48.386;2023-09-18T14:44:55;5.72;;;3.60;;
38529;SDS011;24301;54.332;48.386;2023-09-18T14:47:21;5.57;;;4.18;;
38529;SDS011;24301;54.332;48.386;2023-09-18T14:49:47;4.75;;;3.60;;
38529;SDS011;24301;54.332;48.386;2023-09-18T14:52:14;9.75;;;4.50;;
38529;SDS011;24301;54.332;48.386;2023-09-18T14:54:41;7.25;;;3.83;;
38529;SDS011;24301;54.332;48.386;2023-09-18T14:57:07;5.47;;;3.88;;
38529;SDS011;24301;54.332;48.386;2023-09-18T14:59:33;7.50;;;4.28;;
38529;SDS011;24301;54.332;48.386;2023-09-18T15:01:59;13.57;;;4.78;;
38529;SDS011;24301;54.332;48.386;2023-09-18T15:04:25;7.05;;;4.60;;